sensor_id;sensor_type;location;lat;lon;timestamp;pressure;altitude;pressure_sealevel;temperature;humidity
77366;BME280;66430;50.182;11.704;2023-07-13T00:01:49;94519.64;;;24.85;24.78
77366;BME280;66430;50.182;11.704;2023-07-13T00:04:14;94524.72;;;24.71;24.62
77366;BME280;66430;50.182;11.704;2023-07-13T00:06:39;94526.80;;;24.65;24.77
77366;BME280;66430;50.182;11.704;2023-07-13T00:09:04;94532.93;;;24.61;24.62
77366;BME280;66430;50.182;11.704;2023-07-13T00:11:29;94538.45;;;24.79;24.88
77366;BME280;66430;50.182;11.704;2023-07-13T00:13:54;94538.40;;;24.70;25.04
77366;BME280;66430;50.182;11.704;2023-07-13T00:16:20;94542.58;;;24.42;25.50
77366;BME280;66430;50.182;11.704;2023-07-13T00:18:45;94541.91;;;24.32;25.34
77366;BME280;66430;50.182;11.704;2023-07-13T00:21:10;94538.17;;;24.61;25.21
77366;BME280;66430;50.182;11.704;2023-07-13T00:23:37;94536.71;;;24.67;25.12
77366;BME280;66430;50.182;11.704;2023-07-13T00:26:02;94532.54;;;24.68;24.82
77366;BME280;66430;50.182;11.704;2023-07-13T00:28:27;94530.16;;;24.47;25.85
77366;BME280;66430;50.182;11.704;2023-07-13T00:30:52;94522.29;;;24.07;25.46
77366;BME280;66430;50.182;11.704;2023-07-13T00:33:17;94516.59;;;24.31;25.27
77366;BME280;66430;50.182;11.704;2023-07-13T00:35:42;94513.09;;;24.42;25.18
77366;BME280;66430;50.182;11.704;2023-07-13T00:38:08;94509.05;;;24.11;25.06
77366;BME280;66430;50.182;11.704;2023-07-13T00:40:33;94513.29;;;24.28;25.04
77366;BME280;66430;50.182;11.704;2023-07-13T00:42:59;94509.53;;;24.37;25.03
77366;BME280;66430;50.182;11.704;2023-07-13T00:47:49;94502.62;;;24.14;25.01
77366;BME280;66430;50.182;11.704;2023-07-13T00:50:16;94501.57;;;24.48;24.68
77366;BME280;66430;50.182;11.704;2023-07-13T00:52:43;94499.53;;;24.70;24.99
77366;BME280;66430;50.182;11.704;2023-07-13T00:55:05;94502.30;;;24.37;24.95
77366;BME280;66430;50.182;11.704;2023-07-13T00:57:30;94504.98;;;24.22;24.94
77366;BME280;66430;50.182;11.704;2023-07-13T00:59:58;94503.78;;;24.22;24.88
77366;BME280;66430;50.182;11.704;2023-07-13T01:02:22;94498.33;;;24.31;24.91
77366;BME280;66430;50.182;11.704;2023-07-13T01:04:46;94502.28;;;24.25;25.32
77366;BME280;66430;50.182;11.704;2023-07-13T01:07:13;94506.21;;;24.41;25.64
77366;BME280;66430;50.182;11.704;2023-07-13T01:09:37;94504.83;;;23.99;25.46
77366;BME280;66430;50.182;11.704;2023-07-13T01:12:03;94508.12;;;24.40;25.67
77366;BME280;66430;50.182;11.704;2023-07-13T01:14:28;94512.08;;;24.13;25.63
77366;BME280;66430;50.182;11.704;2023-07-13T01:16:53;94515.85;;;24.14;25.49
77366;BME280;66430;50.182;11.704;2023-07-13T01:19:33;94518.89;;;23.85;25.53
77366;BME280;66430;50.182;11.704;2023-07-13T01:21:44;94519.64;;;23.70;26.28
77366;BME280;66430;50.182;11.704;2023-07-13T01:24:09;94516.13;;;23.93;26.15
77366;BME280;66430;50.182;11.704;2023-07-13T01:26:34;94521.52;;;24.28;26.30
77366;BME280;66430;50.182;11.704;2023-07-13T01:29:00;94514.83;;;24.22;26.30
77366;BME280;66430;50.182;11.704;2023-07-13T01:31:25;94513.68;;;23.76;26.43
77366;BME280;66430;50.182;11.704;2023-07-13T01:33:50;94512.84;;;23.65;26.19
77366;BME280;66430;50.182;11.704;2023-07-13T01:36:16;94508.52;;;23.79;26.10
77366;BME280;66430;50.182;11.704;2023-07-13T01:38:41;94505.18;;;23.73;25.99
77366;BME280;66430;50.182;11.704;2023-07-13T01:41:07;94505.17;;;23.72;25.91
77366;BME280;66430;50.182;11.704;2023-07-13T01:43:32;94506.08;;;23.83;25.70
77366;BME280;66430;50.182;11.704;2023-07-13T01:45:57;94509.21;;;23.39;25.84
77366;BME280;66430;50.182;11.704;2023-07-13T01:48:23;94510.96;;;23.77;25.83
77366;BME280;66430;50.182;11.704;2023-07-13T01:50:48;94505.47;;;23.52;25.73
77366;BME280;66430;50.182;11.704;2023-07-13T01:53:13;94504.00;;;23.48;25.64
77366;BME280;66430;50.182;11.704;2023-07-13T01:55:39;94500.80;;;23.67;25.59
77366;BME280;66430;50.182;11.704;2023-07-13T01:58:04;94496.11;;;23.09;25.70
77366;BME280;66430;50.182;11.704;2023-07-13T02:00:30;94492.28;;;23.55;25.70
77366;BME280;66430;50.182;11.704;2023-07-13T02:02:55;94489.45;;;23.16;25.86
77366;BME280;66430;50.182;11.704;2023-07-13T02:05:20;94486.39;;;23.10;25.82
77366;BME280;66430;50.182;11.704;2023-07-13T02:07:46;94485.92;;;23.31;25.76
77366;BME280;66430;50.182;11.704;2023-07-13T02:10:11;94485.88;;;23.27;25.81
77366;BME280;66430;50.182;11.704;2023-07-13T02:12:37;94493.25;;;23.35;25.99
77366;BME280;66430;50.182;11.704;2023-07-13T02:15:02;94490.79;;;22.96;26.15
77366;BME280;66430;50.182;11.704;2023-07-13T02:17:27;94492.18;;;23.03;26.06
77366;BME280;66430;50.182;11.704;2023-07-13T02:19:52;94498.97;;;23.01;26.01
77366;BME280;66430;50.182;11.704;2023-07-13T02:22:17;94505.26;;;23.32;25.84
77366;BME280;66430;50.182;11.704;2023-07-13T02:24:42;94512.05;;;22.87;26.12
77366;BME280;66430;50.182;11.704;2023-07-13T02:27:08;94513.23;;;22.91;26.38
77366;BME280;66430;50.182;11.704;2023-07-13T02:29:33;94512.08;;;22.73;26.29
77366;BME280;66430;50.182;11.704;2023-07-13T02:31:58;94508.32;;;23.06;26.20
77366;BME280;66430;50.182;11.704;2023-07-13T02:34:24;94508.29;;;22.93;26.29
77366;BME280;66430;50.182;11.704;2023-07-13T02:36:49;94513.78;;;22.75;26.19
77366;BME280;66430;50.182;11.704;2023-07-13T02:39:15;94512.68;;;22.91;26.25
77366;BME280;66430;50.182;11.704;2023-07-13T02:41:40;94509.04;;;22.82;26.43
77366;BME280;66430;50.182;11.704;2023-07-13T02:44:05;94511.35;;;22.54;26.43
77366;BME280;66430;50.182;11.704;2023-07-13T02:46:31;94511.17;;;22.72;26.43
77366;BME280;66430;50.182;11.704;2023-07-13T02:48:56;94511.60;;;22.39;26.78
77366;BME280;66430;50.182;11.704;2023-07-13T02:51:21;94511.34;;;22.62;26.54
77366;BME280;66430;50.182;11.704;2023-07-13T02:53:47;94514.45;;;22.76;26.72
77366;BME280;66430;50.182;11.704;2023-07-13T02:56:12;94510.27;;;22.51;26.43
77366;BME280;66430;50.182;11.704;2023-07-13T02:58:38;94506.77;;;22.51;26.31
77366;BME280;66430;50.182;11.704;2023-07-13T03:01:08;94505.61;;;22.79;26.12
77366;BME280;66430;50.182;11.704;2023-07-13T03:03:28;94503.12;;;22.48;26.41
77366;BME280;66430;50.182;11.704;2023-07-13T03:05:58;94499.82;;;22.43;26.48
77366;BME280;66430;50.182;11.704;2023-07-13T03:08:19;94498.06;;;22.38;26.44
77366;BME280;66430;50.182;11.704;2023-07-13T03:10:44;94497.99;;;22.33;26.30
77366;BME280;66430;50.182;11.704;2023-07-13T03:13:10;94500.59;;;22.26;26.60
77366;BME280;66430;50.182;11.704;2023-07-13T03:15:35;94506.80;;;22.18;26.52
77366;BME280;66430;50.182;11.704;2023-07-13T03:18:00;94511.63;;;22.39;26.40
77366;BME280;66430;50.182;11.704;2023-07-13T03:20:26;94515.66;;;22.09;26.67
77366;BME280;66430;50.182;11.704;2023-07-13T03:22:51;94513.47;;;22.04;26.54
77366;BME280;66430;50.182;11.704;2023-07-13T03:25:16;94512.09;;;22.24;26.47
77366;BME280;66430;50.182;11.704;2023-07-13T03:27:42;94510.30;;;22.02;26.35
77366;BME280;66430;50.182;11.704;2023-07-13T03:30:08;94512.96;;;22.14;26.48
77366;BME280;66430;50.182;11.704;2023-07-13T03:32:32;94519.14;;;22.12;26.59
77366;BME280;66430;50.182;11.704;2023-07-13T03:34:58;94524.20;;;22.02;27.64
77366;BME280;66430;50.182;11.704;2023-07-13T03:37:23;94533.11;;;21.73;28.53
77366;BME280;66430;50.182;11.704;2023-07-13T03:39:49;94543.91;;;21.28;28.87
77366;BME280;66430;50.182;11.704;2023-07-13T03:42:14;94548.13;;;20.70;29.96
77366;BME280;66430;50.182;11.704;2023-07-13T03:44:40;94550.80;;;19.76;31.16
77366;BME280;66430;50.182;11.704;2023-07-13T03:47:05;94557.78;;;20.19;31.55
77366;BME280;66430;50.182;11.704;2023-07-13T03:49:30;94562.69;;;20.03;31.52
77366;BME280;66430;50.182;11.704;2023-07-13T03:51:55;94565.97;;;20.17;31.39
77366;BME280;66430;50.182;11.704;2023-07-13T03:54:21;94565.49;;;20.34;31.49
77366;BME280;66430;50.182;11.704;2023-07-13T03:56:46;94568.05;;;20.53;30.98
77366;BME280;66430;50.182;11.704;2023-07-13T03:59:11;94570.35;;;20.34;30.86
77366;BME280;66430;50.182;11.704;2023-07-13T04:01:40;94568.62;;;20.38;30.82
77366;BME280;66430;50.182;11.704;2023-07-13T04:04:02;94574.14;;;20.30;31.16
77366;BME280;66430;50.182;11.704;2023-07-13T04:06:29;94572.80;;;20.51;30.34
77366;BME280;66430;50.182;11.704;2023-07-13T04:08:56;94571.99;;;20.67;30.15
77366;BME280;66430;50.182;11.704;2023-07-13T04:11:19;94573.92;;;20.69;29.83
77366;BME280;66430;50.182;11.704;2023-07-13T04:13:44;94575.27;;;21.11;30.08
77366;BME280;66430;50.182;11.704;2023-07-13T04:16:10;94574.90;;;20.75;30.28
77366;BME280;66430;50.182;11.704;2023-07-13T04:18:34;94568.42;;;20.67;29.76
77366;BME280;66430;50.182;11.704;2023-07-13T04:21:00;94569.38;;;21.05;29.31
77366;BME280;66430;50.182;11.704;2023-07-13T04:23:25;94574.58;;;21.17;29.41
77366;BME280;66430;50.182;11.704;2023-07-13T04:25:53;94574.25;;;21.35;28.79
77366;BME280;66430;50.182;11.704;2023-07-13T04:28:16;94578.55;;;21.20;28.96
77366;BME280;66430;50.182;11.704;2023-07-13T04:30:41;94573.24;;;21.27;28.46
77366;BME280;66430;50.182;11.704;2023-07-13T04:33:07;94573.80;;;21.24;29.11
77366;BME280;66430;50.182;11.704;2023-07-13T04:35:32;94572.48;;;21.72;28.54
77366;BME280;66430;50.182;11.704;2023-07-13T04:37:57;94575.77;;;21.47;29.03
77366;BME280;66430;50.182;11.704;2023-07-13T04:40:23;94575.11;;;21.49;28.77
77366;BME280;66430;50.182;11.704;2023-07-13T04:42:48;94577.33;;;21.70;28.47
77366;BME280;66430;50.182;11.704;2023-07-13T04:45:14;94580.96;;;21.66;28.54
77366;BME280;66430;50.182;11.704;2023-07-13T04:47:39;94579.27;;;21.44;28.90
77366;BME280;66430;50.182;11.704;2023-07-13T04:50:06;94576.19;;;21.55;28.69
77366;BME280;66430;50.182;11.704;2023-07-13T04:52:30;94578.42;;;21.49;28.57
77366;BME280;66430;50.182;11.704;2023-07-13T04:54:55;94574.00;;;21.64;28.43
77366;BME280;66430;50.182;11.704;2023-07-13T04:57:20;94578.01;;;22.10;28.54
77366;BME280;66430;50.182;11.704;2023-07-13T04:59:46;94581.11;;;22.08;28.41
77366;BME280;66430;50.182;11.704;2023-07-13T05:02:11;94586.95;;;22.22;27.85
77366;BME280;66430;50.182;11.704;2023-07-13T05:04:37;94590.47;;;21.99;27.66
77366;BME280;66430;50.182;11.704;2023-07-13T05:07:02;94591.65;;;22.56;27.50
77366;BME280;66430;50.182;11.704;2023-07-13T05:09:27;94593.61;;;22.20;28.21
77366;BME280;66430;50.182;11.704;2023-07-13T05:11:53;94594.46;;;22.42;27.81
77366;BME280;66430;50.182;11.704;2023-07-13T05:14:18;94599.74;;;22.81;27.74
77366;BME280;66430;50.182;11.704;2023-07-13T05:16:44;94598.14;;;22.96;27.33
77366;BME280;66430;50.182;11.704;2023-07-13T05:19:09;94605.01;;;22.97;27.78
77366;BME280;66430;50.182;11.704;2023-07-13T05:21:34;94604.39;;;23.16;27.73
77366;BME280;66430;50.182;11.704;2023-07-13T05:24:00;94606.41;;;23.33;27.48
77366;BME280;66430;50.182;11.704;2023-07-13T05:26:25;94608.14;;;23.78;27.45
77366;BME280;66430;50.182;11.704;2023-07-13T05:28:50;94610.83;;;23.46;26.50
77366;BME280;66430;50.182;11.704;2023-07-13T05:31:16;94615.72;;;23.35;26.29
77366;BME280;66430;50.182;11.704;2023-07-13T05:33:41;94614.50;;;23.20;26.34
77366;BME280;66430;50.182;11.704;2023-07-13T05:36:07;94617.03;;;23.12;26.04
77366;BME280;66430;50.182;11.704;2023-07-13T05:38:32;94614.97;;;23.54;25.40
77366;BME280;66430;50.182;11.704;2023-07-13T05:40:58;94616.70;;;23.10;25.47
77366;BME280;66430;50.182;11.704;2023-07-13T05:43:22;94620.81;;;23.66;25.39
77366;BME280;66430;50.182;11.704;2023-07-13T05:45:48;94620.81;;;23.20;25.17
77366;BME280;66430;50.182;11.704;2023-07-13T05:48:13;94622.04;;;23.34;25.38
77366;BME280;66430;50.182;11.704;2023-07-13T05:50:39;94619.76;;;23.19;25.23
77366;BME280;66430;50.182;11.704;2023-07-13T05:53:04;94621.91;;;22.95;25.43
77366;BME280;66430;50.182;11.704;2023-07-13T05:55:29;94630.14;;;22.96;25.69
77366;BME280;66430;50.182;11.704;2023-07-13T05:57:54;94637.72;;;23.56;25.82
77366;BME280;66430;50.182;11.704;2023-07-13T06:00:20;94633.23;;;23.72;25.09
77366;BME280;66430;50.182;11.704;2023-07-13T06:02:45;94637.67;;;23.32;25.70
77366;BME280;66430;50.182;11.704;2023-07-13T06:05:11;94636.43;;;23.58;25.31
77366;BME280;66430;50.182;11.704;2023-07-13T06:07:36;94639.26;;;23.58;25.01
77366;BME280;66430;50.182;11.704;2023-07-13T06:10:01;94640.59;;;23.86;24.21
77366;BME280;66430;50.182;11.704;2023-07-13T06:12:27;94637.17;;;24.13;24.86
77366;BME280;66430;50.182;11.704;2023-07-13T06:14:52;94637.58;;;24.26;24.59
77366;BME280;66430;50.182;11.704;2023-07-13T06:17:17;94636.73;;;24.50;24.45
77366;BME280;66430;50.182;11.704;2023-07-13T06:19:43;94640.77;;;24.62;25.49
77366;BME280;66430;50.182;11.704;2023-07-13T06:22:08;94642.17;;;25.07;24.45
77366;BME280;66430;50.182;11.704;2023-07-13T06:24:34;94642.43;;;24.75;23.98
77366;BME280;66430;50.182;11.704;2023-07-13T06:26:59;94645.47;;;24.54;24.60
77366;BME280;66430;50.182;11.704;2023-07-13T06:29:24;94649.50;;;24.78;26.03
77366;BME280;66430;50.182;11.704;2023-07-13T06:31:50;94654.19;;;25.12;25.35
77366;BME280;66430;50.182;11.704;2023-07-13T06:34:15;94656.88;;;25.17;23.59
77366;BME280;66430;50.182;11.704;2023-07-13T06:36:40;94655.11;;;24.94;24.23
77366;BME280;66430;50.182;11.704;2023-07-13T06:39:07;94658.81;;;24.30;26.37
77366;BME280;66430;50.182;11.704;2023-07-13T06:41:31;94658.88;;;24.67;25.74
77366;BME280;66430;50.182;11.704;2023-07-13T06:43:57;94659.79;;;24.56;25.63
77366;BME280;66430;50.182;11.704;2023-07-13T06:46:23;94659.92;;;25.03;24.23
77366;BME280;66430;50.182;11.704;2023-07-13T06:48:47;94659.44;;;24.55;24.36
77366;BME280;66430;50.182;11.704;2023-07-13T06:51:12;94657.60;;;24.60;24.65
77366;BME280;66430;50.182;11.704;2023-07-13T06:53:38;94661.46;;;24.47;24.22
77366;BME280;66430;50.182;11.704;2023-07-13T06:56:03;94662.06;;;24.65;24.90
77366;BME280;66430;50.182;11.704;2023-07-13T06:58:29;94658.11;;;24.61;24.42
77366;BME280;66430;50.182;11.704;2023-07-13T07:00:54;94659.43;;;24.76;23.85
77366;BME280;66430;50.182;11.704;2023-07-13T07:03:19;94664.21;;;24.01;24.20
77366;BME280;66430;50.182;11.704;2023-07-13T07:05:44;94666.48;;;24.31;23.98
77366;BME280;66430;50.182;11.704;2023-07-13T07:08:10;94671.49;;;24.45;24.09
77366;BME280;66430;50.182;11.704;2023-07-13T07:10:35;94676.16;;;24.13;23.78
77366;BME280;66430;50.182;11.704;2023-07-13T07:13:03;94676.53;;;23.93;23.98
77366;BME280;66430;50.182;11.704;2023-07-13T07:15:29;94677.88;;;24.19;24.75
77366;BME280;66430;50.182;11.704;2023-07-13T07:17:51;94685.46;;;23.24;26.57
77366;BME280;66430;50.182;11.704;2023-07-13T07:20:17;94687.26;;;23.65;26.13
77366;BME280;66430;50.182;11.704;2023-07-13T07:22:42;94690.31;;;23.37;26.54
77366;BME280;66430;50.182;11.704;2023-07-13T07:25:08;94691.82;;;23.54;27.79
77366;BME280;66430;50.182;11.704;2023-07-13T07:27:38;94691.85;;;23.86;27.98
77366;BME280;66430;50.182;11.704;2023-07-13T07:29:59;94694.10;;;23.74;26.78
77366;BME280;66430;50.182;11.704;2023-07-13T07:32:24;94695.22;;;24.22;26.39
77366;BME280;66430;50.182;11.704;2023-07-13T07:34:49;94694.46;;;24.55;26.35
77366;BME280;66430;50.182;11.704;2023-07-13T07:37:14;94697.32;;;24.36;25.61
77366;BME280;66430;50.182;11.704;2023-07-13T07:39:39;94698.13;;;24.53;26.49
77366;BME280;66430;50.182;11.704;2023-07-13T07:42:05;94700.22;;;24.41;25.59
77366;BME280;66430;50.182;11.704;2023-07-13T07:44:30;94702.14;;;24.31;26.86
77366;BME280;66430;50.182;11.704;2023-07-13T07:46:55;94696.65;;;24.98;25.83
77366;BME280;66430;50.182;11.704;2023-07-13T07:49:20;94696.33;;;25.12;24.98
77366;BME280;66430;50.182;11.704;2023-07-13T07:51:46;94696.52;;;25.18;25.43
77366;BME280;66430;50.182;11.704;2023-07-13T07:54:11;94698.74;;;25.17;25.26
77366;BME280;66430;50.182;11.704;2023-07-13T07:56:36;94698.15;;;25.72;25.47
77366;BME280;66430;50.182;11.704;2023-07-13T07:59:02;94697.05;;;25.42;25.15
77366;BME280;66430;50.182;11.704;2023-07-13T08:01:27;94695.30;;;25.53;23.82
77366;BME280;66430;50.182;11.704;2023-07-13T08:03:52;94697.77;;;25.77;23.93
77366;BME280;66430;50.182;11.704;2023-07-13T08:06:18;94699.80;;;25.90;23.50
77366;BME280;66430;50.182;11.704;2023-07-13T08:08:43;94705.88;;;25.74;22.37
77366;BME280;66430;50.182;11.704;2023-07-13T08:11:09;94704.99;;;25.70;21.89
77366;BME280;66430;50.182;11.704;2023-07-13T08:13:34;94704.87;;;25.33;21.77
77366;BME280;66430;50.182;11.704;2023-07-13T08:15:59;94703.80;;;25.49;21.46
77366;BME280;66430;50.182;11.704;2023-07-13T08:18:25;94705.64;;;25.33;21.68
77366;BME280;66430;50.182;11.704;2023-07-13T08:20:50;94706.30;;;25.57;21.89
77366;BME280;66430;50.182;11.704;2023-07-13T08:23:15;94711.49;;;25.54;21.67
77366;BME280;66430;50.182;11.704;2023-07-13T08:25:40;94712.35;;;24.96;22.60
77366;BME280;66430;50.182;11.704;2023-07-13T08:28:06;94714.14;;;24.50;22.62
77366;BME280;66430;50.182;11.704;2023-07-13T08:30:31;94716.06;;;24.10;23.45
77366;BME280;66430;50.182;11.704;2023-07-13T08:32:57;94717.95;;;24.56;22.99
77366;BME280;66430;50.182;11.704;2023-07-13T08:35:22;94720.88;;;24.49;24.42
77366;BME280;66430;50.182;11.704;2023-07-13T08:37:47;94721.66;;;24.37;24.25
77366;BME280;66430;50.182;11.704;2023-07-13T08:40:13;94723.72;;;24.38;23.68
77366;BME280;66430;50.182;11.704;2023-07-13T08:42:43;94728.19;;;24.33;24.80
77366;BME280;66430;50.182;11.704;2023-07-13T08:45:13;94729.60;;;25.12;23.87
77366;BME280;66430;50.182;11.704;2023-07-13T08:47:31;94735.45;;;24.79;23.17
77366;BME280;66430;50.182;11.704;2023-07-13T08:49:54;94731.75;;;24.52;22.95
77366;BME280;66430;50.182;11.704;2023-07-13T08:52:29;94737.83;;;24.30;23.03
77366;BME280;66430;50.182;11.704;2023-07-13T08:54:47;94738.33;;;24.45;23.59
77366;BME280;66430;50.182;11.704;2023-07-13T08:57:13;94744.30;;;24.11;23.71
77366;BME280;66430;50.182;11.704;2023-07-13T08:59:35;94739.85;;;23.95;24.43
77366;BME280;66430;50.182;11.704;2023-07-13T09:04:29;94745.79;;;23.83;25.16
77366;BME280;66430;50.182;11.704;2023-07-13T09:06:59;94747.21;;;24.31;24.27
77366;BME280;66430;50.182;11.704;2023-07-13T09:09:24;94751.26;;;24.19;23.36
77366;BME280;66430;50.182;11.704;2023-07-13T09:11:49;94754.87;;;24.24;24.27
77366;BME280;66430;50.182;11.704;2023-07-13T09:16:33;94758.02;;;24.76;24.41
77366;BME280;66430;50.182;11.704;2023-07-13T09:19:01;94754.92;;;24.43;23.59
77366;BME280;66430;50.182;11.704;2023-07-13T09:21:27;94756.62;;;24.89;23.50
77366;BME280;66430;50.182;11.704;2023-07-13T09:23:55;94753.94;;;25.42;22.43
77366;BME280;66430;50.182;11.704;2023-07-13T09:26:18;94755.69;;;25.44;23.93
77366;BME280;66430;50.182;11.704;2023-07-13T09:28:42;94767.25;;;25.29;22.66
77366;BME280;66430;50.182;11.704;2023-07-13T09:31:09;94764.61;;;25.19;21.39
77366;BME280;66430;50.182;11.704;2023-07-13T09:33:30;94764.54;;;25.55;21.04
77366;BME280;66430;50.182;11.704;2023-07-13T09:35:55;94761.24;;;25.15;21.77
77366;BME280;66430;50.182;11.704;2023-07-13T09:38:23;94759.27;;;25.06;21.57
77366;BME280;66430;50.182;11.704;2023-07-13T09:41:01;94762.60;;;24.77;23.24
77366;BME280;66430;50.182;11.704;2023-07-13T09:43:14;94759.17;;;25.00;22.57
77366;BME280;66430;50.182;11.704;2023-07-13T09:45:37;94760.73;;;24.97;21.05
77366;BME280;66430;50.182;11.704;2023-07-13T09:48:05;94762.90;;;24.98;21.87
77366;BME280;66430;50.182;11.704;2023-07-13T09:50:27;94760.68;;;25.49;20.38
77366;BME280;66430;50.182;11.704;2023-07-13T09:52:53;94762.35;;;25.23;22.72
77366;BME280;66430;50.182;11.704;2023-07-13T09:55:26;94756.66;;;25.92;21.79
77366;BME280;66430;50.182;11.704;2023-07-13T09:57:49;94757.85;;;25.53;19.60
77366;BME280;66430;50.182;11.704;2023-07-13T10:00:18;94754.18;;;25.76;21.35
77366;BME280;66430;50.182;11.704;2023-07-13T10:02:36;94752.73;;;25.79;19.70
77366;BME280;66430;50.182;11.704;2023-07-13T10:05:01;94752.27;;;25.75;20.06
77366;BME280;66430;50.182;11.704;2023-07-13T10:07:25;94750.19;;;26.07;19.61
77366;BME280;66430;50.182;11.704;2023-07-13T10:09:52;94753.23;;;25.84;19.30
77366;BME280;66430;50.182;11.704;2023-07-13T10:12:15;94757.72;;;25.95;20.68
77366;BME280;66430;50.182;11.704;2023-07-13T10:14:42;94759.47;;;26.03;20.61
77366;BME280;66430;50.182;11.704;2023-07-13T10:17:10;94760.14;;;26.47;21.56
77366;BME280;66430;50.182;11.704;2023-07-13T10:19:32;94751.23;;;26.12;18.23
77366;BME280;66430;50.182;11.704;2023-07-13T10:22:00;94755.46;;;26.31;19.90
77366;BME280;66430;50.182;11.704;2023-07-13T10:24:23;94759.76;;;26.35;19.91
77366;BME280;66430;50.182;11.704;2023-07-13T10:26:53;94751.34;;;26.25;18.99
77366;BME280;66430;50.182;11.704;2023-07-13T10:29:14;94761.40;;;26.45;19.56
77366;BME280;66430;50.182;11.704;2023-07-13T10:31:39;94768.07;;;26.62;20.36
77366;BME280;66430;50.182;11.704;2023-07-13T10:34:03;94763.68;;;26.30;20.31
77366;BME280;66430;50.182;11.704;2023-07-13T10:36:32;94770.11;;;26.96;21.08
77366;BME280;66430;50.182;11.704;2023-07-13T10:38:55;94765.64;;;27.18;18.81
77366;BME280;66430;50.182;11.704;2023-07-13T10:41:21;94764.14;;;26.90;19.42
77366;BME280;66430;50.182;11.704;2023-07-13T10:43:46;94766.22;;;27.42;19.45
77366;BME280;66430;50.182;11.704;2023-07-13T10:46:13;94765.41;;;27.46;17.52
77366;BME280;66430;50.182;11.704;2023-07-13T10:48:36;94762.03;;;27.01;18.27
77366;BME280;66430;50.182;11.704;2023-07-13T10:51:00;94764.40;;;27.73;18.33
77366;BME280;66430;50.182;11.704;2023-07-13T10:53:29;94758.02;;;27.93;18.31
77366;BME280;66430;50.182;11.704;2023-07-13T10:55:59;94755.34;;;28.05;18.94
77366;BME280;66430;50.182;11.704;2023-07-13T10:58:20;94761.29;;;27.51;18.48
77366;BME280;66430;50.182;11.704;2023-07-13T11:00:46;94753.96;;;27.99;18.20
77366;BME280;66430;50.182;11.704;2023-07-13T11:03:14;94753.07;;;28.06;17.96
77366;BME280;66430;50.182;11.704;2023-07-13T11:05:33;94753.84;;;27.97;15.85
77366;BME280;66430;50.182;11.704;2023-07-13T11:08:11;94758.59;;;27.88;17.28
77366;BME280;66430;50.182;11.704;2023-07-13T11:12:52;94753.37;;;28.08;15.11
77366;BME280;66430;50.182;11.704;2023-07-13T11:15:13;94760.15;;;27.82;16.66
77366;BME280;66430;50.182;11.704;2023-07-13T11:17:48;94751.62;;;27.83;16.53
77366;BME280;66430;50.182;11.704;2023-07-13T11:22:42;94743.35;;;28.02;16.78
77366;BME280;66430;50.182;11.704;2023-07-13T11:25:00;94747.45;;;27.77;16.42
77366;BME280;66430;50.182;11.704;2023-07-13T11:27:33;94752.34;;;28.25;15.70
77366;BME280;66430;50.182;11.704;2023-07-13T11:29:45;94751.62;;;27.66;16.22
77366;BME280;66430;50.182;11.704;2023-07-13T11:34:38;94749.28;;;28.24;16.08
77366;BME280;66430;50.182;11.704;2023-07-13T11:37:01;94745.44;;;28.04;14.43
77366;BME280;66430;50.182;11.704;2023-07-13T11:39:29;94743.13;;;27.88;15.03
77366;BME280;66430;50.182;11.704;2023-07-13T11:41:53;94740.99;;;27.93;16.35
77366;BME280;66430;50.182;11.704;2023-07-13T11:44:19;94736.98;;;27.87;16.04
77366;BME280;66430;50.182;11.704;2023-07-13T11:46:46;94737.49;;;27.90;15.51
77366;BME280;66430;50.182;11.704;2023-07-13T11:49:07;94731.43;;;27.85;15.43
77366;BME280;66430;50.182;11.704;2023-07-13T11:51:35;94740.85;;;27.82;16.78
77366;BME280;66430;50.182;11.704;2023-07-13T11:54:01;94733.67;;;27.68;16.27
77366;BME280;66430;50.182;11.704;2023-07-13T11:56:23;94744.05;;;27.70;14.48
77366;BME280;66430;50.182;11.704;2023-07-13T11:58:50;94742.29;;;27.55;14.47
77366;BME280;66430;50.182;11.704;2023-07-13T12:01:20;94747.58;;;27.30;15.50
77366;BME280;66430;50.182;11.704;2023-07-13T12:03:40;94747.62;;;27.43;14.98
77366;BME280;66430;50.182;11.704;2023-07-13T12:06:17;94757.79;;;27.05;15.94
77366;BME280;66430;50.182;11.704;2023-07-13T12:08:29;94751.83;;;27.41;16.15
77366;BME280;66430;50.182;11.704;2023-07-13T12:11:02;94750.11;;;27.43;15.95
77366;BME280;66430;50.182;11.704;2023-07-13T12:13:20;94760.70;;;27.16;15.92
77366;BME280;66430;50.182;11.704;2023-07-13T12:15:46;94757.70;;;26.95;15.65
77366;BME280;66430;50.182;11.704;2023-07-13T12:18:15;94760.13;;;27.19;15.99
77366;BME280;66430;50.182;11.704;2023-07-13T12:20:38;94762.05;;;27.04;17.12
77366;BME280;66430;50.182;11.704;2023-07-13T12:23:01;94756.39;;;27.40;17.04
77366;BME280;66430;50.182;11.704;2023-07-13T12:25:27;94760.99;;;27.28;16.66
77366;BME280;66430;50.182;11.704;2023-07-13T12:27:52;94764.24;;;26.72;15.58
77366;BME280;66430;50.182;11.704;2023-07-13T12:30:28;94758.44;;;27.69;15.86
77366;BME280;66430;50.182;11.704;2023-07-13T12:32:42;94759.00;;;27.40;15.57
77366;BME280;66430;50.182;11.704;2023-07-13T12:35:14;94765.38;;;27.45;17.54
77366;BME280;66430;50.182;11.704;2023-07-13T12:37:34;94766.95;;;27.52;17.37
77366;BME280;66430;50.182;11.704;2023-07-13T12:39:58;94771.51;;;27.27;15.86
77366;BME280;66430;50.182;11.704;2023-07-13T12:42:26;94772.03;;;27.19;16.31
77366;BME280;66430;50.182;11.704;2023-07-13T12:44:49;94771.75;;;27.52;15.66
77366;BME280;66430;50.182;11.704;2023-07-13T12:47:15;94765.15;;;27.65;15.66
77366;BME280;66430;50.182;11.704;2023-07-13T12:49:42;94764.80;;;27.06;16.11
77366;BME280;66430;50.182;11.704;2023-07-13T12:52:13;94765.12;;;26.94;16.91
77366;BME280;66430;50.182;11.704;2023-07-13T12:54:32;94760.83;;;27.96;16.34